Harvey, West Virginia
Current Conditions -  °F | °C
As of 2:51 AM on Tuesday 27 Jan 2015 (Local Time) from KBKW Reporting Station
Light Snow Light Snow  
Wind Chill:   Ceiling: 1800
Heat Index: 20°   Visibility: 6mi
Dew Point: 13°   Wind: 10mph
Humidity: 74%   Direction: 330°NNW
Pressure: 29.78"   Gusts: NA
Location:  37.9785°N, 81.1005°W
Report Text: KBKW 270751Z AUTO 33009KT 6SM -SN OVC018 M07/M11 A2978 RMK AO2 SNE37B50 SLP122 P0000 T10671106
Loading
Personal Weather Stations






























Interactive Weather Map New forecast layout! Learn more

10-Day Weather Forecast

Advertisements
Track Severe Weather on mobile